Time;durP1;ratioP1;P1;durP2;ratioP2;P2;SDS_P1;SDS_P2;PMS_P1;PMS_P2;Temp;Humidity;BMP_temperature;BMP_pressure;BME280_temperature;BME280_humidity;BME280_pressure;Samples;Min_cycle;Max_cycle;Signal;HPM_P1;HPM_P2
2023/08/22 00:02:04;;;;;;;1.70;0.80;;;30.00;62.40;;;;;;10487806;28;20680;-36
2023/08/22 00:07:06;;;;;;;0.85;0.73;;;30.00;62.50;;;;;;10493232;28;20128;-39
2023/08/22 00:12:09;;;;;;;1.85;0.80;;;30.00;62.60;;;;;;10484783;28;20098;-36
2023/08/22 00:17:11;;;;;;;1.40;0.80;;;29.90;62.60;;;;;;10498567;28;20575;-37
2023/08/22 00:22:13;;;;;;;1.70;0.80;;;29.90;62.60;;;;;;10505422;28;20075;-32
2023/08/22 00:27:16;;;;;;;1.27;0.73;;;29.80;62.70;;;;;;10493454;28;20114;-32
2023/08/22 00:32:18;;;;;;;1.20;0.68;;;29.80;62.70;;;;;;10504014;28;20465;-37
2023/08/22 00:37:20;;;;;;;1.38;0.80;;;29.80;62.80;;;;;;10504144;28;20098;-32
2023/08/22 00:42:23;;;;;;;1.60;0.70;;;29.80;62.70;;;;;;10487862;28;20461;-32
2023/08/22 00:47:25;;;;;;;5.30;0.80;;;29.70;62.80;;;;;;10509554;28;20071;-40
2023/08/22 00:52:27;;;;;;;0.77;0.70;;;29.70;62.80;;;;;;10509603;28;20044;-32
2023/08/22 00:57:30;;;;;;;1.67;0.77;;;29.60;62.90;;;;;;10494772;28;20070;-36
2023/08/22 01:02:33;;;;;;;2.33;0.88;;;29.60;62.90;;;;;;10494136;28;20127;-36
2023/08/22 01:07:41;;;;;;;1.10;0.50;;;29.60;63.00;;;;;;10502543;28;20488;-40
2023/08/22 01:12:52;;;;;;;1.98;0.80;;;29.50;63.00;;;;;;10490883;28;20472;-42
2023/08/22 01:17:55;;;;;;;2.13;0.90;;;29.50;63.10;;;;;;10481228;28;20053;-39
2023/08/22 01:22:59;;;;;;;0.82;0.60;;;29.50;63.00;;;;;;10493354;28;20089;-36
2023/08/22 01:28:09;;;;;;;0.57;0.50;;;29.40;63.10;;;;;;10490817;28;20044;-32
2023/08/22 01:33:14;;;;;;;0.90;0.67;;;29.40;63.20;;;;;;10474693;28;20067;-34
2023/08/22 01:38:19;;;;;;;1.67;0.80;;;29.40;63.10;;;;;;10496778;28;20048;-32
2023/08/22 01:43:21;;;;;;;0.95;0.52;;;29.30;63.10;;;;;;10489068;28;20626;-35
2023/08/22 01:48:23;;;;;;;1.92;0.80;;;29.30;63.00;;;;;;10493757;28;20048;-36
2023/08/22 01:53:26;;;;;;;1.05;0.73;;;29.30;63.20;;;;;;10488088;28;20041;-36
2023/08/22 01:58:28;;;;;;;0.98;0.60;;;29.30;63.10;;;;;;10495719;28;20080;-39
2023/08/22 02:03:30;;;;;;;2.78;0.70;;;29.30;63.20;;;;;;10474549;28;20118;-32
2023/08/22 02:08:33;;;;;;;3.17;0.52;;;29.20;63.20;;;;;;10493594;28;20075;-38
2023/08/22 02:13:35;;;;;;;1.60;0.73;;;29.20;63.30;;;;;;10487422;28;21056;-32
2023/08/22 02:18:37;;;;;;;1.42;0.68;;;29.10;63.30;;;;;;10490549;28;20091;-41
2023/08/22 02:23:40;;;;;;;1.75;0.77;;;29.10;63.30;;;;;;10492005;28;20520;-34
2023/08/22 02:28:42;;;;;;;0.73;0.60;;;29.10;63.30;;;;;;10505043;28;20044;-33
2023/08/22 02:33:44;;;;;;;1.15;0.70;;;29.10;63.50;;;;;;10483218;28;20048;-35
2023/08/22 02:38:48;;;;;;;1.73;0.60;;;29.10;63.50;;;;;;10486896;28;20059;-37
2023/08/22 02:43:50;;;;;;;1.20;0.47;;;29.00;63.40;;;;;;10494014;28;20050;-31
2023/08/22 02:48:52;;;;;;;2.05;0.60;;;29.00;63.50;;;;;;10484995;28;20094;-37
2023/08/22 02:53:55;;;;;;;1.42;0.70;;;29.00;63.50;;;;;;10498288;28;20041;-33
2023/08/22 03:15:28;;;;;;;1.10;0.60;;;28.70;63.60;;;;;;10480914;27;2049140;-37
2023/08/22 03:20:30;;;;;;;1.67;0.77;;;28.70;64.10;;;;;;10561255;28;20472;-42
2023/08/22 03:25:32;;;;;;;0.57;0.57;;;28.70;63.90;;;;;;10557646;28;20063;-37
2023/08/22 03:30:35;;;;;;;1.30;0.50;;;28.70;63.80;;;;;;10550674;28;20127;-33
2023/08/22 03:35:37;;;;;;;0.65;0.40;;;28.70;63.80;;;;;;10554242;28;20041;-37
2023/08/22 03:40:39;;;;;;;0.68;0.65;;;28.70;63.80;;;;;;10553506;28;20453;-34
2023/08/22 03:45:42;;;;;;;2.75;1.13;;;28.70;63.80;;;;;;10552373;28;20475;-37
2023/08/22 03:50:44;;;;;;;1.45;0.93;;;28.60;63.80;;;;;;10561915;28;20568;-36
2023/08/22 03:55:45;;;;;;;1.25;0.73;;;28.60;63.80;;;;;;10552553;28;20473;-33
2023/08/22 04:00:49;;;;;;;1.63;0.82;;;28.60;63.90;;;;;;10537527;28;20131;-33
2023/08/22 04:05:51;;;;;;;0.90;0.55;;;28.60;63.80;;;;;;10552004;28;20124;-39
2023/08/22 04:10:53;;;;;;;2.95;1.10;;;28.60;63.90;;;;;;10558699;28;20052;-34
2023/08/22 04:15:56;;;;;;;1.23;0.73;;;28.50;63.80;;;;;;10557087;28;20094;-34
2023/08/22 04:20:58;;;;;;;2.20;1.30;;;28.50;63.80;;;;;;10541279;28;20672;-36
2023/08/22 04:26:00;;;;;;;7.13;1.30;;;28.50;63.70;;;;;;10527395;28;20078;-32
2023/08/22 04:31:03;;;;;;;2.40;1.05;;;28.50;63.60;;;;;;10529257;28;20093;-34
2023/08/22 04:36:06;;;;;;;2.53;1.20;;;28.50;63.50;;;;;;10523111;28;20056;-33
2023/08/22 04:41:07;;;;;;;3.85;1.42;;;28.40;63.40;;;;;;10528612;28;20146;-34
2023/08/22 04:46:11;;;;;;;3.58;1.42;;;28.40;63.40;;;;;;10513856;28;20459;-36
2023/08/22 04:51:12;;;;;;;4.50;1.40;;;28.40;63.50;;;;;;10516997;28;20052;-35
2023/08/22 04:56:14;;;;;;;2.05;1.42;;;28.40;63.50;;;;;;10528200;28;20467;-33
2023/08/22 05:01:17;;;;;;;3.58;1.23;;;28.40;63.50;;;;;;10522381;28;20140;-36
2023/08/22 05:06:19;;;;;;;4.93;1.80;;;28.30;63.50;;;;;;10520981;28;20516;-35
2023/08/22 05:11:21;;;;;;;5.30;1.80;;;28.30;63.50;;;;;;10518220;28;20048;-42
2023/08/22 05:16:24;;;;;;;5.63;1.73;;;28.30;63.60;;;;;;10507910;28;20102;-36
2023/08/22 05:21:26;;;;;;;5.43;1.50;;;28.30;63.60;;;;;;10540621;28;20824;-32
2023/08/22 05:26:28;;;;;;;6.72;1.92;;;28.20;64.10;;;;;;10528324;28;20064;-38
2023/08/22 05:31:32;;;;;;;4.18;1.77;;;28.30;63.50;;;;;;10520861;28;20563;-43
2023/08/22 05:36:34;;;;;;;4.55;1.50;;;28.30;63.50;;;;;;10520444;28;20040;-36
2023/08/22 05:41:36;;;;;;;5.28;1.45;;;28.30;63.60;;;;;;10511219;28;20246;-36
2023/08/22 05:46:39;;;;;;;9.13;1.70;;;28.30;63.50;;;;;;10519319;28;20069;-32
2023/08/22 05:51:41;;;;;;;4.57;1.60;;;28.30;63.60;;;;;;10524784;28;20125;-34
2023/08/22 05:56:43;;;;;;;5.80;1.58;;;28.30;63.50;;;;;;10528224;28;20044;-33
2023/08/22 06:01:46;;;;;;;6.07;1.90;;;28.30;63.60;;;;;;10519406;28;20093;-34
2023/08/22 06:06:48;;;;;;;4.53;1.65;;;28.30;63.50;;;;;;10514142;28;20067;-31
2023/08/22 06:11:50;;;;;;;2.85;1.20;;;28.30;63.70;;;;;;10523583;28;20479;-38
2023/08/22 06:16:54;;;;;;;4.53;1.50;;;28.30;63.80;;;;;;10516464;28;20143;-32
2023/08/22 06:21:55;;;;;;;5.95;1.67;;;28.30;64.00;;;;;;10534273;28;20041;-34
2023/08/22 06:26:57;;;;;;;4.47;1.35;;;28.20;64.10;;;;;;10527640;28;20484;-37
2023/08/22 06:32:01;;;;;;;4.65;1.70;;;28.30;64.20;;;;;;10518765;28;20105;-35
2023/08/22 06:37:04;;;;;;;2.08;1.23;;;28.30;64.10;;;;;;10525681;28;20048;-34
2023/08/22 06:42:06;;;;;;;8.18;1.85;;;28.30;64.10;;;;;;10517796;28;20059;-36
2023/08/22 06:47:10;;;;;;;2.78;1.70;;;28.30;64.10;;;;;;10524136;28;20458;-34
2023/08/22 06:52:12;;;;;;;4.57;1.65;;;28.30;64.10;;;;;;10527972;28;20097;-35
2023/08/22 06:57:13;;;;;;;3.03;1.40;;;28.20;64.80;;;;;;10517548;28;20036;-34
2023/08/22 07:02:17;;;;;;;8.75;1.70;;;27.00;68.80;;;;;;10506271;28;20055;-35
2023/08/22 07:07:19;;;;;;;5.03;1.88;;;27.70;66.70;;;;;;10513205;28;20182;-34
2023/08/22 07:12:20;;;;;;;5.93;1.67;;;27.90;66.50;;;;;;10521558;28;20083;-38
2023/08/22 07:17:24;;;;;;;11.77;1.77;;;27.30;69.00;;;;;;10516945;28;20075;-33
2023/08/22 07:22:26;;;;;;;4.05;1.38;;;27.30;67.00;;;;;;10518418;28;20060;-40
2023/08/22 07:27:28;;;;;;;4.80;1.67;;;27.10;69.50;;;;;;10517894;28;20519;-36
2023/08/22 07:32:31;;;;;;;4.00;1.02;;;27.60;67.30;;;;;;10516618;28;20056;-39
2023/08/22 07:37:33;;;;;;;2.28;0.93;;;27.90;66.80;;;;;;10508665;28;20148;-33
2023/08/22 07:42:35;;;;;;;6.78;1.35;;;27.80;66.10;;;;;;10522650;28;20068;-38
2023/08/22 07:47:39;;;;;;;8.05;1.25;;;27.30;69.10;;;;;;10522162;28;20047;-37
2023/08/22 07:52:40;;;;;;;4.30;1.02;;;27.30;68.50;;;;;;10520023;28;20076;-35
2023/08/22 07:57:42;;;;;;;3.45;1.10;;;27.80;67.10;;;;;;10507451;28;20513;-33
2023/08/22 08:02:46;;;;;;;6.18;1.10;;;27.20;68.60;;;;;;10525178;28;20056;-38
2023/08/22 08:07:48;;;;;;;3.95;1.38;;;27.90;66.90;;;;;;10527138;28;20040;-34
2023/08/22 08:12:50;;;;;;;5.28;1.50;;;27.40;68.60;;;;;;10534033;28;20102;-33
2023/08/22 08:17:53;;;;;;;2.97;1.02;;;27.50;67.20;;;;;;10521925;28;20083;-35
2023/08/22 08:22:55;;;;;;;3.65;0.77;;;27.50;68.40;;;;;;10531826;28;20342;-36
2023/08/22 08:27:58;;;;;;;9.63;1.38;;;27.40;69.10;;;;;;10516566;28;20051;-40
2023/08/22 08:33:03;;;;;;;7.57;1.13;;;26.30;72.30;;;;;;10521931;28;20056;-34
2023/08/22 08:38:05;;;;;;;4.13;1.10;;;27.80;67.50;;;;;;10517511;28;20043;-37
2023/08/22 08:43:07;;;;;;;2.95;1.10;;;27.90;66.80;;;;;;10531424;28;20378;-40
2023/08/22 08:48:10;;;;;;;3.65;0.80;;;27.30;68.40;;;;;;10532565;28;20113;-41
2023/08/22 08:53:12;;;;;;;5.97;0.85;;;27.80;66.90;;;;;;10530163;28;20125;-34
2023/08/22 08:58:14;;;;;;;2.53;1.00;;;27.30;68.40;;;;;;10521864;28;20044;-41
2023/08/22 09:03:19;;;;;;;4.20;2.55;;;26.80;70.80;;;;;;10514432;28;20639;-32
2023/08/22 09:08:21;;;;;;;6.68;1.30;;;26.80;69.40;;;;;;10519444;28;20074;-37
2023/08/22 09:13:27;;;;;;;3.50;1.17;;;27.10;67.60;;;;;;10518817;28;20052;-32
2023/08/22 09:18:30;;;;;;;1.38;0.77;;;26.20;72.10;;;;;;10515242;28;20435;-36
2023/08/22 09:23:32;;;;;;;1.83;0.98;;;27.60;67.10;;;;;;10519408;28;20065;-37
2023/08/22 09:28:39;;;;;;;2.72;1.02;;;26.90;71.00;;;;;;10522953;28;20036;-35
2023/08/22 09:33:47;;;;;;;2.10;0.90;;;26.70;71.00;;;;;;10527377;28;20139;-32
2023/08/22 09:38:54;;;;;;;4.68;1.13;;;27.30;69.00;;;;;;10516451;28;20075;-34
2023/08/22 09:43:58;;;;;;;3.67;0.95;;;26.60;72.30;;;;;;10526367;28;20446;-37
2023/08/22 09:49:02;;;;;;;2.95;0.98;;;26.80;72.40;;;;;;10524544;28;20404;-40
2023/08/22 09:54:06;;;;;;;5.13;1.50;;;26.50;74.20;;;;;;10526318;28;20048;-36
2023/08/22 09:59:08;;;;;;;4.10;1.35;;;24.90;77.60;;;;;;10518261;28;20048;-34
2023/08/22 10:04:13;;;;;;;4.53;0.77;;;25.00;80.90;;;;;;10529707;28;20040;-36
2023/08/22 10:09:15;;;;;;;5.07;1.58;;;26.80;72.10;;;;;;10519738;28;20592;-37
2023/08/22 10:14:23;;;;;;;7.38;1.25;;;26.30;73.10;;;;;;10527090;28;20055;-33
2023/08/22 10:19:27;;;;;;;3.20;1.10;;;25.90;76.20;;;;;;10530770;28;20091;-33
2023/08/22 10:24:30;;;;;;;2.30;1.05;;;27.50;69.80;;;;;;10524996;28;20048;-42
2023/08/22 10:29:34;;;;;;;1.40;0.60;;;26.70;71.80;;;;;;10523754;28;20076;-37
2023/08/22 10:35:22;;;;;;;6.28;1.55;;;25.40;80.60;;;;;;10524913;28;20054;-37
2023/08/22 10:40:28;;;;;;;4.15;1.10;;;26.20;75.10;;;;;;10528008;28;20047;-37
2023/08/22 10:45:38;;;;;;;4.75;1.40;;;26.60;73.30;;;;;;10516260;28;20144;-32
2023/08/22 10:50:44;;;;;;;3.17;0.80;;;25.90;75.00;;;;;;10527790;28;20066;-35
2023/08/22 10:55:47;;;;;;;2.75;0.90;;;26.10;76.60;;;;;;10518996;28;20140;-35
2023/08/22 11:00:50;;;;;;;8.32;1.42;;;26.00;77.80;;;;;;10516299;28;20056;-35
2023/08/22 11:05:52;;;;;;;3.50;1.08;;;26.60;72.80;;;;;;10515127;28;20036;-36
2023/08/22 11:10:58;;;;;;;3.58;1.10;;;26.20;75.90;;;;;;10522745;28;20544;-35
2023/08/22 11:16:00;;;;;;;3.80;1.95;;;26.60;73.50;;;;;;10523465;28;20055;-31
2023/08/22 11:21:03;;;;;;;4.03;1.27;;;26.80;71.70;;;;;;10518090;28;20135;-39
2023/08/22 11:26:08;;;;;;;4.78;1.17;;;26.70;70.60;;;;;;10526165;28;20165;-37
2023/08/22 11:31:16;;;;;;;3.75;0.73;;;27.30;69.20;;;;;;10519818;28;20093;-35
2023/08/22 11:36:20;;;;;;;2.20;1.08;;;27.90;67.40;;;;;;10525927;28;20098;-33
2023/08/22 11:41:23;;;;;;;3.63;1.35;;;27.90;67.30;;;;;;10508547;28;20062;-38
2023/08/22 11:46:26;;;;;;;2.90;1.00;;;28.00;66.40;;;;;;10518185;28;20040;-36
2023/08/22 11:51:29;;;;;;;2.53;0.70;;;27.70;68.70;;;;;;10533123;28;20048;-36
2023/08/22 11:56:32;;;;;;;5.35;0.80;;;27.50;68.10;;;;;;10526304;28;20049;-41
2023/08/22 12:01:34;;;;;;;2.85;0.80;;;27.90;66.90;;;;;;10522513;28;20068;-32
2023/08/22 12:06:36;;;;;;;3.38;1.20;;;27.90;67.10;;;;;;10515346;28;20045;-37
2023/08/22 12:11:39;;;;;;;3.25;0.90;;;26.30;69.20;;;;;;10516289;28;20056;-32
2023/08/22 12:16:41;;;;;;;2.88;0.98;;;25.30;78.90;;;;;;10519692;28;20044;-38
2023/08/22 12:21:43;;;;;;;5.47;0.90;;;27.00;72.80;;;;;;10520441;28;20488;-33
2023/08/22 12:26:46;;;;;;;2.38;0.80;;;27.30;68.30;;;;;;10527165;28;20087;-40
2023/08/22 12:31:48;;;;;;;6.63;1.30;;;27.60;70.40;;;;;;10519511;28;20623;-34
2023/08/22 12:36:51;;;;;;;3.35;0.90;;;27.30;69.80;;;;;;10524582;28;20079;-37
2023/08/22 12:41:54;;;;;;;2.38;0.85;;;27.70;67.80;;;;;;10516660;28;20048;-33
2023/08/22 12:46:58;;;;;;;2.97;0.90;;;28.10;68.30;;;;;;10528600;28;20140;-33
2023/08/22 12:52:00;;;;;;;2.10;0.65;;;27.60;67.60;;;;;;10519105;28;20439;-33
2023/08/22 12:57:04;;;;;;;1.05;0.70;;;27.40;70.10;;;;;;10524274;28;20416;-33
2023/08/22 13:02:06;;;;;;;2.47;0.95;;;27.30;71.70;;;;;;10515300;28;20044;-36
2023/08/22 13:07:08;;;;;;;3.58;1.17;;;27.30;74.00;;;;;;10530238;28;20072;-39
2023/08/22 13:12:11;;;;;;;4.28;1.40;;;26.70;74.10;;;;;;10527796;28;20488;-35
2023/08/22 13:17:13;;;;;;;4.78;1.52;;;27.50;73.30;;;;;;10531685;28;20599;-33
2023/08/22 13:22:15;;;;;;;2.92;0.70;;;27.70;70.10;;;;;;10534165;28;20115;-40
2023/08/22 13:27:19;;;;;;;2.75;0.80;;;28.00;70.70;;;;;;10529610;28;20505;-33
2023/08/22 13:32:20;;;;;;;2.33;0.60;;;28.10;70.00;;;;;;10530421;28;20040;-39
2023/08/22 13:37:24;;;;;;;3.63;1.00;;;28.30;70.50;;;;;;10521447;28;20098;-37
2023/08/22 13:42:28;;;;;;;5.55;1.00;;;27.90;69.70;;;;;;10524233;28;20517;-36
2023/08/22 13:47:29;;;;;;;2.85;0.80;;;28.10;67.60;;;;;;10510903;28;20205;-36
2023/08/22 13:52:31;;;;;;;6.95;1.30;;;27.30;70.50;;;;;;10512130;28;20058;-36
2023/08/22 13:57:34;;;;;;;3.05;1.05;;;27.00;69.50;;;;;;10510493;28;20059;-34
2023/08/22 14:02:36;;;;;;;3.03;0.90;;;28.10;65.80;;;;;;10523424;28;20167;-37
2023/08/22 14:07:38;;;;;;;4.38;0.98;;;28.10;69.90;;;;;;10530088;28;20097;-35
2023/08/22 14:12:41;;;;;;;3.00;0.80;;;28.40;67.00;;;;;;10516848;28;20105;-42
2023/08/22 14:17:43;;;;;;;4.28;1.10;;;29.20;66.20;;;;;;10522706;28;20175;-38
2023/08/22 14:22:45;;;;;;;2.78;1.10;;;28.70;66.80;;;;;;10513003;28;20538;-39
2023/08/22 14:27:49;;;;;;;2.97;0.70;;;29.50;64.80;;;;;;10525193;28;20121;-33
2023/08/22 14:32:50;;;;;;;1.20;0.57;;;28.20;67.00;;;;;;10516664;28;20075;-35
2023/08/22 14:37:52;;;;;;;2.40;0.80;;;29.50;66.80;;;;;;10527507;28;20068;-34
2023/08/22 14:42:56;;;;;;;2.70;0.80;;;29.90;63.80;;;;;;10516213;28;20090;-36
2023/08/22 14:47:57;;;;;;;2.60;1.00;;;30.10;66.10;;;;;;10521482;28;20481;-37
2023/08/22 14:52:59;;;;;;;1.73;0.63;;;29.00;65.30;;;;;;10510527;28;20072;-33
2023/08/22 14:58:02;;;;;;;2.38;0.82;;;29.10;69.50;;;;;;10512490;28;20473;-34
2023/08/22 15:03:04;;;;;;;3.55;0.90;;;30.50;62.40;;;;;;10519654;28;20048;-39
2023/08/22 15:08:07;;;;;;;7.53;1.48;;;29.90;65.20;;;;;;10502396;28;20091;-33
2023/08/22 15:13:10;;;;;;;1.52;0.63;;;30.10;64.60;;;;;;10507779;28;20118;-32
2023/08/22 15:18:12;;;;;;;2.10;0.82;;;29.90;66.90;;;;;;10509562;28;20040;-35
2023/08/22 15:23:13;;;;;;;1.88;0.75;;;30.40;68.70;;;;;;10524317;28;20059;-32
2023/08/22 15:28:18;;;;;;;3.33;0.90;;;30.40;59.90;;;;;;10516126;28;20068;-32
2023/08/22 15:33:19;;;;;;;2.53;0.70;;;30.70;62.80;;;;;;10528459;28;20514;-39
2023/08/22 15:38:21;;;;;;;1.52;0.68;;;31.40;60.50;;;;;;10521374;28;20051;-33
2023/08/22 15:43:25;;;;;;;1.02;0.77;;;31.50;70.10;;;;;;10502243;28;20070;-35
2023/08/22 15:48:26;;;;;;;2.30;0.85;;;30.70;66.70;;;;;;10517366;28;20040;-37
2023/08/22 15:53:29;;;;;;;2.75;0.80;;;32.00;73.80;;;;;;10525160;28;20048;-35
2023/08/22 15:58:32;;;;;;;1.25;0.55;;;31.80;72.00;;;;;;10520355;28;20040;-33
2023/08/22 16:03:34;;;;;;;1.35;0.32;;;33.30;69.20;;;;;;10514303;28;20132;-33
2023/08/22 16:08:36;;;;;;;2.28;0.30;;;31.90;73.80;;;;;;10510565;28;20048;-34
2023/08/22 16:13:39;;;;;;;0.93;0.40;;;32.10;65.00;;;;;;10515233;28;20056;-34
2023/08/22 16:18:41;;;;;;;1.38;0.50;;;32.20;78.50;;;;;;10509943;28;20051;-33
2023/08/22 16:23:43;;;;;;;1.27;0.38;;;32.60;68.30;;;;;;10518162;28;20040;-32
2023/08/22 16:28:46;;;;;;;1.38;0.55;;;32.20;70.80;;;;;;10520667;28;20168;-35
2023/08/22 16:33:47;;;;;;;2.38;0.65;;;32.20;76.00;;;;;;10514964;28;20092;-42
2023/08/22 16:38:49;;;;;;;4.10;0.73;;;31.80;68.50;;;;;;10508750;28;20569;-43
2023/08/22 16:43:53;;;;;;;1.70;0.60;;;31.80;59.70;;;;;;10514386;28;20076;-33
2023/08/22 16:48:55;;;;;;;1.35;0.50;;;32.70;73.00;;;;;;10513962;28;20054;-34
2023/08/22 16:53:57;;;;;;;1.60;0.38;;;32.10;60.10;;;;;;10518896;28;20400;-33
2023/08/22 16:59:00;;;;;;;1.70;0.50;;;33.10;71.80;;;;;;10518344;28;20172;-35
2023/08/22 17:04:02;;;;;;;1.65;0.57;;;32.70;58.70;;;;;;10523807;28;20124;-37
2023/08/22 17:09:05;;;;;;;2.97;0.70;;;32.40;70.60;;;;;;10518678;28;20443;-32
2023/08/22 17:14:08;;;;;;;1.65;0.55;;;32.70;72.20;;;;;;10528793;28;20468;-32
2023/08/22 17:19:12;;;;;;;0.70;0.50;;;33.10;70.00;;;;;;10527538;28;20277;-31
2023/08/22 17:24:14;;;;;;;0.82;0.55;;;32.80;73.30;;;;;;10521127;28;20450;-30
2023/08/22 17:29:17;;;;;;;0.77;0.57;;;33.30;72.40;;;;;;10531721;28;20051;-31
2023/08/22 17:34:19;;;;;;;1.13;0.60;;;33.50;69.70;;;;;;10529182;28;20122;-34
2023/08/22 17:39:20;;;;;;;2.67;0.52;;;33.30;69.90;;;;;;10530429;28;20131;-37
2023/08/22 17:44:23;;;;;;;4.55;0.65;;;33.60;69.90;;;;;;10519287;28;20072;-33
2023/08/22 17:49:25;;;;;;;1.95;1.08;;;33.70;69.40;;;;;;10524256;28;20127;-35
2023/08/22 17:54:27;;;;;;;0.40;0.40;;;33.40;67.20;;;;;;10531375;28;20058;-36
2023/08/22 17:59:30;;;;;;;0.63;0.47;;;33.10;69.30;;;;;;10518316;28;20093;-33
2023/08/22 18:04:32;;;;;;;1.17;0.63;;;32.90;69.30;;;;;;10508643;28;20127;-37
2023/08/22 18:09:34;;;;;;;1.50;0.60;;;33.10;68.80;;;;;;10517060;28;20114;-36
2023/08/22 18:14:38;;;;;;;1.38;0.65;;;33.20;70.10;;;;;;10529061;28;20528;-41
2023/08/22 18:19:40;;;;;;;1.58;0.60;;;33.00;64.10;;;;;;10527578;28;20056;-32
2023/08/22 18:24:44;;;;;;;1.27;0.60;;;32.80;68.40;;;;;;10522364;28;20097;-37
2023/08/22 18:29:47;;;;;;;0.60;0.60;;;33.10;67.50;;;;;;10513253;28;20133;-35
2023/08/22 18:34:49;;;;;;;1.17;0.55;;;33.20;67.60;;;;;;10508986;28;20149;-39
2023/08/22 18:39:50;;;;;;;1.27;0.60;;;33.20;66.50;;;;;;10527642;28;20553;-40
2023/08/22 18:44:54;;;;;;;1.48;0.63;;;33.10;66.10;;;;;;10526173;28;20143;-33
2023/08/22 18:50:00;;;;;;;3.58;0.70;;;33.10;65.40;;;;;;10507144;28;20127;-33
2023/08/22 18:55:02;;;;;;;2.30;0.70;;;33.00;65.30;;;;;;10509334;28;20480;-37
2023/08/22 19:00:09;;;;;;;1.83;0.80;;;32.80;65.20;;;;;;10516507;28;20178;-36
2023/08/22 19:05:13;;;;;;;1.02;0.60;;;32.70;65.00;;;;;;10519466;28;20056;-33
2023/08/22 19:10:15;;;;;;;2.63;0.85;;;32.60;64.80;;;;;;10510929;28;20072;-39
2023/08/22 19:15:19;;;;;;;1.63;0.80;;;32.50;64.90;;;;;;10514612;28;20390;-38
2023/08/22 19:20:22;;;;;;;2.72;1.20;;;32.40;65.00;;;;;;10506265;28;20074;-35
2023/08/22 19:25:23;;;;;;;2.22;1.20;;;32.30;64.80;;;;;;10512911;28;20071;-36
2023/08/22 19:30:27;;;;;;;5.53;1.17;;;32.00;64.60;;;;;;10524398;28;20072;-32
2023/08/22 19:35:29;;;;;;;5.60;1.40;;;31.90;64.20;;;;;;10513332;28;20051;-37
2023/08/22 19:40:34;;;;;;;7.75;1.70;;;31.80;63.90;;;;;;10505485;28;20048;-33
2023/08/22 19:45:37;;;;;;;5.15;2.08;;;31.70;63.90;;;;;;10520632;28;20052;-35
2023/08/22 19:50:39;;;;;;;7.38;1.90;;;31.60;63.80;;;;;;10523914;28;20044;-34
2023/08/22 19:55:41;;;;;;;8.15;1.85;;;31.50;63.70;;;;;;10522723;28;20048;-43
2023/08/22 20:00:46;;;;;;;5.15;1.30;;;31.40;63.30;;;;;;10524161;28;20048;-38
2023/08/22 20:05:48;;;;;;;2.10;1.02;;;31.30;63.30;;;;;;10524187;28;20101;-33
2023/08/22 20:10:51;;;;;;;3.15;0.93;;;31.20;63.10;;;;;;10518533;28;20101;-36
2023/08/22 20:15:55;;;;;;;2.72;0.88;;;31.10;62.80;;;;;;10528028;28;20052;-35
2023/08/22 20:20:59;;;;;;;2.55;1.13;;;31.00;62.60;;;;;;10527431;28;20489;-35
2023/08/22 20:26:01;;;;;;;4.00;0.93;;;31.00;62.60;;;;;;10492003;28;20056;-34
2023/08/22 20:31:07;;;;;;;1.42;0.65;;;30.90;62.50;;;;;;10531111;28;20044;-39
2023/08/22 20:36:09;;;;;;;2.60;0.80;;;30.80;62.30;;;;;;10526159;28;20048;-36
2023/08/22 20:41:11;;;;;;;2.80;1.42;;;30.70;62.30;;;;;;10527408;28;20432;-32
2023/08/22 20:46:14;;;;;;;1.85;0.80;;;30.70;62.10;;;;;;10525429;28;20109;-33
2023/08/22 20:51:16;;;;;;;1.50;0.80;;;30.70;62.40;;;;;;10527143;28;20613;-38
2023/08/22 20:56:18;;;;;;;1.83;0.60;;;30.60;62.60;;;;;;10523855;28;20047;-37
2023/08/22 21:01:21;;;;;;;3.85;0.60;;;30.50;62.70;;;;;;10521331;28;20130;-34
2023/08/22 21:06:23;;;;;;;2.55;0.65;;;30.50;62.70;;;;;;10523597;28;20075;-34
2023/08/22 21:11:25;;;;;;;1.92;0.80;;;30.40;62.70;;;;;;10522421;28;20067;-36
2023/08/22 21:16:28;;;;;;;2.60;0.60;;;30.40;62.70;;;;;;10522070;28;20075;-37
2023/08/22 21:21:30;;;;;;;3.08;0.80;;;30.40;62.90;;;;;;10519639;28;20076;-36
2023/08/22 21:26:32;;;;;;;2.25;0.70;;;30.30;63.00;;;;;;10521034;28;20090;-34
2023/08/22 21:31:35;;;;;;;1.52;0.93;;;30.30;63.00;;;;;;10514423;28;20052;-32
2023/08/22 21:36:37;;;;;;;1.48;0.80;;;30.20;63.20;;;;;;10511216;28;20075;-33
2023/08/22 21:41:39;;;;;;;1.65;0.68;;;30.20;63.30;;;;;;10512767;28;20239;-31
2023/08/22 21:46:42;;;;;;;1.05;0.60;;;30.10;63.30;;;;;;10507572;28;20135;-37
2023/08/22 21:51:44;;;;;;;1.70;0.75;;;30.10;63.30;;;;;;10513574;28;20052;-36
2023/08/22 21:56:46;;;;;;;2.05;0.90;;;30.00;64.00;;;;;;10509089;28;20484;-35
2023/08/22 22:01:49;;;;;;;3.80;1.25;;;30.00;63.40;;;;;;10508618;28;20098;-35
2023/08/22 22:06:51;;;;;;;1.23;0.60;;;30.00;63.60;;;;;;10525818;28;20051;-36
2023/08/22 22:11:53;;;;;;;2.53;1.25;;;29.90;63.70;;;;;;10521969;28;20045;-32
2023/08/22 22:16:56;;;;;;;1.48;1.10;;;29.80;63.60;;;;;;10518695;28;20056;-36
2023/08/22 22:21:58;;;;;;;1.20;0.93;;;29.80;63.60;;;;;;10512552;28;20053;-33
2023/08/22 22:27:00;;;;;;;2.78;0.82;;;29.80;63.70;;;;;;10516667;28;20507;-34
2023/08/22 22:32:04;;;;;;;1.58;0.98;;;29.70;63.70;;;;;;10514050;28;20646;-34
2023/08/22 22:37:07;;;;;;;1.85;0.85;;;29.70;63.80;;;;;;10517133;28;20143;-36
2023/08/22 22:42:09;;;;;;;1.42;0.80;;;29.70;63.80;;;;;;10505605;28;20052;-34
2023/08/22 22:47:12;;;;;;;3.53;1.02;;;29.60;63.80;;;;;;10520696;28;20068;-33
2023/08/22 22:52:14;;;;;;;1.40;1.02;;;29.60;63.80;;;;;;10522858;28;20158;-35
2023/08/22 22:57:17;;;;;;;2.28;1.05;;;29.50;63.90;;;;;;10529151;28;20499;-32
2023/08/22 23:02:20;;;;;;;1.05;0.75;;;29.50;63.90;;;;;;10508730;28;20466;-33
2023/08/22 23:07:22;;;;;;;1.70;0.88;;;29.40;64.50;;;;;;10522692;28;20044;-34
2023/08/22 23:12:24;;;;;;;2.65;1.10;;;29.40;64.00;;;;;;10518776;28;20097;-32
2023/08/22 23:17:34;;;;;;;2.65;1.40;;;29.40;63.90;;;;;;10518124;28;20139;-32
2023/08/22 23:22:37;;;;;;;5.03;1.23;;;29.30;63.90;;;;;;10510061;28;20117;-40
2023/08/22 23:27:40;;;;;;;1.45;1.10;;;29.30;64.00;;;;;;10517627;28;20136;-34
2023/08/22 23:32:43;;;;;;;1.33;0.70;;;29.30;64.10;;;;;;10511836;28;20191;-40
2023/08/22 23:37:45;;;;;;;2.50;1.10;;;29.20;64.20;;;;;;10524260;28;20135;-34
2023/08/22 23:42:47;;;;;;;2.38;1.23;;;29.20;64.10;;;;;;10523379;28;20634;-34
2023/08/22 23:47:51;;;;;;;2.85;1.20;;;29.10;64.20;;;;;;10517769;28;20090;-36
2023/08/22 23:52:53;;;;;;;3.97;1.50;;;29.10;64.20;;;;;;10524428;28;20048;-39
2023/08/22 23:57:57;;;;;;;2.05;1.30;;;29.10;64.30;;;;;;10529685;28;20052;-32
